Time;durP1;ratioP1;P1;durP2;ratioP2;P2;SDS_P1;SDS_P2;PMS_P1;PMS_P2;Temp;Humidity;BMP_temperature;BMP_pressure;BME280_temperature;BME280_humidity;BME280_pressure;Samples;Min_cycle;Max_cycle;Signal;HPM_P1;HPM_P2
2021/12/26 00:02:03;;;;;;;;;;;;;;;21.89;36.50;100298.70;102121;1349;75851;-82
2021/12/26 00:04:36;;;;;;;;;;;;;;;21.89;36.64;100292.11;102277;1342;61690;-82
2021/12/26 00:07:25;;;;;;;;;;;;;;;21.89;36.73;100291.74;102132;1350;61430;-83
2021/12/26 00:09:53;;;;;;;;;;;;;;;21.89;36.61;100289.26;102162;1343;72926;-83
2021/12/26 00:12:42;;;;;;;;;;;;;;;21.89;36.60;100290.70;102060;1345;75907;-83
2021/12/26 00:15:10;;;;;;;;;;;;;;;21.89;36.57;100291.03;102174;1348;61283;-83
2021/12/26 00:17:41;;;;;;;;;;;;;;;21.89;36.69;100292.05;102204;1349;61128;-84
2021/12/26 00:20:47;;;;;;;;;;;;;;;21.89;36.61;100304.27;102191;1342;71485;-84
2021/12/26 00:23:24;;;;;;;;;;;;;;;;;;;;;
2021/12/26 00:26:23;;;;;;;;;;;;;;;21.89;36.60;100312.14;102181;1343;61648;-83
2021/12/26 00:28:51;;;;;;;;;;;;;;;21.89;36.49;100317.88;102299;1349;61215;-83
2021/12/26 00:31:51;;;;;;;;;;;;;;;;;;;;;
2021/12/26 00:34:37;;;;;;;;;;;;;;;21.89;36.57;100323.39;102100;1342;75884;-83
2021/12/26 00:37:06;;;;;;;;;;;;;;;21.89;36.39;100326.08;102295;1342;61294;-84
2021/12/26 00:39:45;;;;;;;;;;;;;;;21.89;36.63;100327.55;102323;1348;61938;-83
2021/12/26 00:42:25;;;;;;;;;;;;;;;;;;;;;
2021/12/26 00:44:54;;;;;;;;;;;;;;;21.89;36.71;100339.52;101905;1352;74705;-82
2021/12/26 00:47:32;;;;;;;;;;;;;;;21.90;36.52;100352.04;102033;1350;61432;-82
2021/12/26 00:50:02;;;;;;;;;;;;;;;21.90;36.72;100360.09;102215;1342;61625;-82
2021/12/26 00:52:47;;;;;;;;;;;;;;;21.89;36.69;100361.75;102158;1346;74650;-82
2021/12/26 00:55:21;;;;;;;;;;;;;;;21.89;36.57;100368.23;102299;1343;74512;-82
2021/12/26 00:57:58;;;;;;;;;;;;;;;21.90;36.56;100376.59;102041;1342;61437;-83
2021/12/26 01:01:01;;;;;;;;;;;;;;;21.89;36.51;100398.48;102172;1346;61234;-83
2021/12/26 01:03:42;;;;;;;;;;;;;;;;;;;;;
2021/12/26 01:06:14;;;;;;;;;;;;;;;21.89;36.57;100399.00;102157;1346;75888;-82
2021/12/26 01:09:26;;;;;;;;;;;;;;;;;;;;;
2021/12/26 01:11:59;;;;;;;;;;;;;;;21.90;36.68;100407.39;101906;1348;61212;-83
2021/12/26 01:14:34;;;;;;;;;;;;;;;21.90;36.56;100406.66;101872;1352;72644;-82
2021/12/26 01:17:14;;;;;;;;;;;;;;;21.89;36.50;100403.83;101904;1355;76034;-83
2021/12/26 01:20:03;;;;;;;;;;;;;;;21.89;36.55;100404.60;101904;1352;61292;-83
2021/12/26 01:22:42;;;;;;;;;;;;;;;;;;;;;
2021/12/26 01:25:22;;;;;;;;;;;;;;;21.90;36.66;100423.89;101883;1352;71636;-83
2021/12/26 01:27:50;;;;;;;;;;;;;;;21.89;36.48;100425.54;101786;1355;74587;-83
2021/12/26 01:30:31;;;;;;;;;;;;;;;21.89;36.41;100425.36;101798;1349;61174;-83
2021/12/26 01:33:05;;;;;;;;;;;;;;;21.88;36.43;100430.41;101842;1355;61232;-83
2021/12/26 01:35:47;;;;;;;;;;;;;;;21.89;36.52;100430.77;101886;1349;74083;-83
2021/12/26 01:38:27;;;;;;;;;;;;;;;21.89;36.52;100438.46;101847;1348;75919;-83
2021/12/26 01:40:55;;;;;;;;;;;;;;;21.89;36.43;100444.75;101885;1348;61238;-83
2021/12/26 01:43:29;;;;;;;;;;;;;;;21.88;36.47;100452.67;101883;1352;61149;-83
2021/12/26 01:46:00;;;;;;;;;;;;;;;21.88;36.41;100440.84;101931;1349;72671;-83
2021/12/26 01:48:45;;;;;;;;;;;;;;;21.88;36.33;100433.88;102287;1346;74620;-83
2021/12/26 01:51:22;;;;;;;;;;;;;;;21.87;36.39;100429.64;102037;1345;61193;-83
2021/12/26 01:54:09;;;;;;;;;;;;;;;21.86;36.25;100433.65;101993;1342;61293;-83
2021/12/26 01:56:42;;;;;;;;;;;;;;;21.86;36.58;100433.48;102135;1346;73068;-83
2021/12/26 01:59:24;;;;;;;;;;;;;;;21.86;36.30;100438.48;102155;1349;74679;-83
2021/12/26 02:02:09;;;;;;;;;;;;;;;;;;;;;
2021/12/26 02:05:02;;;;;;;;;;;;;;;21.86;36.27;100444.64;102192;1345;61581;-82
2021/12/26 02:07:36;;;;;;;;;;;;;;;21.85;36.37;100445.54;102159;1342;71639;-83
2021/12/26 02:10:16;;;;;;;;;;;;;;;21.86;36.22;100445.16;102116;1346;74157;-83
2021/12/26 02:12:55;;;;;;;;;;;;;;;21.85;36.27;100439.30;101891;1352;61205;-82
2021/12/26 02:15:38;;;;;;;;;;;;;;;;;;;;;
2021/12/26 02:18:44;;;;;;;;;;;;;;;21.84;36.40;100440.44;101986;1345;73345;-84
2021/12/26 02:25:09;;;;;;;;;;;;;;;21.84;36.37;100442.11;101755;1352;61247;-83
2021/12/26 02:30:23;;;;;;;;;;;;;;;21.84;36.43;100448.70;100750;1363;71521;-84
2021/12/26 02:33:15;;;;;;;;;;;;;;;21.84;36.38;100441.56;100846;1368;75215;-84
2021/12/26 02:35:46;;;;;;;;;;;;;;;21.84;36.15;100442.09;100811;1369;61205;-83
2021/12/26 02:38:15;;;;;;;;;;;;;;;21.84;36.34;100450.50;100751;1370;61336;-84
2021/12/26 02:41:14;;;;;;;;;;;;;;;21.84;36.45;100464.64;100740;1366;73748;-84
2021/12/26 02:43:39;;;;;;;;;;;;;;;21.84;36.21;100455.16;100983;1368;75285;-84
2021/12/26 02:46:42;;;;;;;;;;;;;;;;;;;;;
2021/12/26 02:49:50;;;;;;;;;;;;;;;21.84;36.27;100478.63;101066;1363;62082;-83
2021/12/26 02:52:18;;;;;;;;;;;;;;;21.84;36.25;100469.10;101082;1363;71671;-83
2021/12/26 02:54:50;;;;;;;;;;;;;;;21.84;36.38;100467.34;101124;1362;74757;-83
2021/12/26 02:57:35;;;;;;;;;;;;;;;21.85;36.23;100481.27;101116;1364;61452;-83
2021/12/26 03:00:09;;;;;;;;;;;;;;;21.84;36.21;100482.58;101609;1355;61170;-83
2021/12/26 03:02:58;;;;;;;;;;;;;;;;;;;;;
2021/12/26 03:06:28;;;;;;;;;;;;;;;21.84;35.97;100488.48;101526;1360;73498;-84
2021/12/26 03:09:19;;;;;;;;;;;;;;;21.84;36.11;100483.29;101876;1349;61513;-83
2021/12/26 03:11:49;;;;;;;;;;;;;;;21.84;36.15;100482.23;101909;1352;61689;-84
2021/12/26 03:14:37;;;;;;;;;;;;;;;21.83;35.95;100479.94;101886;1352;72969;-83
2021/12/26 03:17:11;;;;;;;;;;;;;;;21.84;36.08;100480.27;101816;1353;75470;-83
2021/12/26 03:19:57;;;;;;;;;;;;;;;21.84;35.95;100481.54;101715;1356;61398;-84
2021/12/26 03:26:06;;;;;;;;;;;;;;;21.83;36.15;100485.69;100424;1371;71564;-83
2021/12/26 03:28:43;;;;;;;;;;;;;;;21.83;36.04;100485.31;100446;1372;74931;-83
2021/12/26 03:31:30;;;;;;;;;;;;;;;;;;;;;
2021/12/26 03:34:15;;;;;;;;;;;;;;;21.83;36.04;100503.48;100438;1370;61441;-83
2021/12/26 03:36:52;;;;;;;;;;;;;;;21.82;35.97;100498.63;100181;1372;73769;-83
2021/12/26 03:39:29;;;;;;;;;;;;;;;21.82;35.97;100497.04;100429;1369;74911;-83
2021/12/26 03:42:15;;;;;;;;;;;;;;;21.81;35.97;100499.27;100444;1373;61233;-84
2021/12/26 03:45:00;;;;;;;;;;;;;;;21.82;35.98;100509.25;100454;1373;61550;-84
2021/12/26 03:47:34;;;;;;;;;;;;;;;21.82;36.03;100514.83;100423;1366;75103;-83
2021/12/26 03:50:21;;;;;;;;;;;;;;;21.81;35.98;100515.02;100385;1366;74827;-83
2021/12/26 03:53:18;;;;;;;;;;;;;;;;;;;;;
2021/12/26 03:55:53;;;;;;;;;;;;;;;21.82;35.86;100536.48;100435;1373;62179;-83
2021/12/26 03:59:10;;;;;;;;;;;;;;;21.82;35.97;100541.30;100438;1372;73889;-83
2021/12/26 04:02:03;;;;;;;;;;;;;;;21.82;35.82;100559.59;101082;1367;75047;-83
2021/12/26 04:05:03;;;;;;;;;;;;;;;;;;;;;
2021/12/26 04:07:48;;;;;;;;;;;;;;;21.82;35.84;100549.20;101565;1357;61443;-83
2021/12/26 04:10:26;;;;;;;;;;;;;;;21.82;35.79;100563.17;101319;1363;71363;-83
2021/12/26 04:13:05;;;;;;;;;;;;;;;21.82;35.86;100571.94;101563;1363;74784;-83
2021/12/26 04:15:51;;;;;;;;;;;;;;;21.81;35.71;100572.33;101549;1360;61380;-83
2021/12/26 04:18:39;;;;;;;;;;;;;;;;;;;;;
2021/12/26 04:21:36;;;;;;;;;;;;;;;21.82;35.69;100585.57;101542;1360;72795;-83
2021/12/26 04:24:10;;;;;;;;;;;;;;;21.82;35.85;100580.92;101539;1357;74855;-83
2021/12/26 04:26:44;;;;;;;;;;;;;;;21.81;35.76;100585.42;101475;1357;61520;-83
2021/12/26 04:29:23;;;;;;;;;;;;;;;21.81;35.93;100586.50;101490;1357;61244;-83
2021/12/26 04:32:13;;;;;;;;;;;;;;;21.81;35.65;100575.60;101509;1357;72727;-83
2021/12/26 04:34:47;;;;;;;;;;;;;;;21.81;35.78;100577.02;101535;1357;74848;-83
2021/12/26 04:37:16;;;;;;;;;;;;;;;21.81;35.76;100579.55;101567;1356;61314;-83
2021/12/26 04:40:10;;;;;;;;;;;;;;;21.81;35.84;100583.66;101481;1362;61393;-83
2021/12/26 04:42:56;;;;;;;;;;;;;;;21.82;35.79;100597.41;101513;1357;73812;-83
2021/12/26 04:45:28;;;;;;;;;;;;;;;21.81;35.59;100606.77;101820;1352;74929;-83
2021/12/26 04:48:24;;;;;;;;;;;;;;;21.81;35.79;100613.22;101874;1355;61413;-83
2021/12/26 04:51:04;;;;;;;;;;;;;;;21.81;35.61;100614.30;101939;1349;61958;-83
2021/12/26 04:54:01;;;;;;;;;;;;;;;21.81;35.52;100610.90;101891;1348;71739;-83
2021/12/26 04:56:48;;;;;;;;;;;;;;;;;;;;;
2021/12/26 04:59:41;;;;;;;;;;;;;;;21.81;35.68;100613.43;101924;1352;61275;-83
2021/12/26 05:02:09;;;;;;;;;;;;;;;21.81;35.72;100615.05;101935;1349;61426;-83
2021/12/26 05:04:51;;;;;;;;;;;;;;;;;;;;;
2021/12/26 05:07:29;;;;;;;;;;;;;;;21.80;35.61;100622.23;101885;1348;75838;-83
2021/12/26 05:10:34;;;;;;;;;;;;;;;21.80;35.56;100609.02;101912;1355;61291;-83
2021/12/26 05:13:10;;;;;;;;;;;;;;;21.80;35.53;100609.70;101897;1348;61336;-83
2021/12/26 05:15:58;;;;;;;;;;;;;;;21.81;35.51;100613.98;101892;1348;73615;-82
2021/12/26 05:18:38;;;;;;;;;;;;;;;21.80;35.72;100614.17;101932;1352;75811;-83
2021/12/26 05:21:31;;;;;;;;;;;;;;;21.80;35.61;100613.83;102015;1346;61297;-83
2021/12/26 05:24:17;;;;;;;;;;;;;;;21.80;35.66;100609.20;102174;1343;61231;-83
2021/12/26 05:27:04;;;;;;;;;;;;;;;21.80;35.54;100619.02;101857;1352;73883;-83
2021/12/26 05:30:16;;;;;;;;;;;;;;;21.80;35.53;100631.77;101754;1351;73631;-83
2021/12/26 05:32:59;;;;;;;;;;;;;;;21.80;35.59;100644.42;101888;1352;61282;-83
2021/12/26 05:35:35;;;;;;;;;;;;;;;21.80;35.48;100648.57;101818;1355;60625;-83
2021/12/26 05:38:27;;;;;;;;;;;;;;;21.80;35.44;100652.15;101788;1352;72820;-83
2021/12/26 05:41:06;;;;;;;;;;;;;;;;;;;;;
2021/12/26 05:43:42;;;;;;;;;;;;;;;21.81;35.47;100653.70;101584;1360;61282;-83
2021/12/26 05:46:29;;;;;;;;;;;;;;;;;;;;;
2021/12/26 05:49:09;;;;;;;;;;;;;;;;;;;;;
2021/12/26 05:51:46;;;;;;;;;;;;;;;21.80;35.40;100659.30;101556;1354;74708;-82
2021/12/26 05:54:20;;;;;;;;;;;;;;;21.81;35.39;100658.23;101578;1360;61183;-82
2021/12/26 05:57:12;;;;;;;;;;;;;;;;;;;;;
2021/12/26 05:59:58;;;;;;;;;;;;;;;;;;;;;
2021/12/26 06:02:58;;;;;;;;;;;;;;;21.81;35.34;100653.73;101636;1360;72668;-82
2021/12/26 06:05:56;;;;;;;;;;;;;;;;;;;;;
2021/12/26 06:08:51;;;;;;;;;;;;;;;21.81;35.47;100661.80;101735;1351;61270;-83
2021/12/26 06:11:26;;;;;;;;;;;;;;;;;;;;;
2021/12/26 06:14:15;;;;;;;;;;;;;;;21.80;35.35;100665.41;101797;1356;73376;-82
2021/12/26 06:17:00;;;;;;;;;;;;;;;21.81;35.29;100673.79;101881;1348;61457;-83
2021/12/26 06:19:49;;;;;;;;;;;;;;;21.81;35.21;100672.17;102313;1346;61262;-83
2021/12/26 06:22:54;;;;;;;;;;;;;;;21.80;35.40;100679.75;101847;1352;71889;-83
2021/12/26 06:25:33;;;;;;;;;;;;;;;;;;;;;
2021/12/26 06:28:08;;;;;;;;;;;;;;;21.81;35.32;100685.61;101823;1352;61187;-84
2021/12/26 06:30:57;;;;;;;;;;;;;;;21.80;35.23;100682.25;101784;1349;61804;-84
2021/12/26 06:33:42;;;;;;;;;;;;;;;21.80;35.17;100682.77;101828;1351;74134;-84
2021/12/26 06:36:11;;;;;;;;;;;;;;;21.80;35.27;100681.35;101880;1355;75899;-83
2021/12/26 06:39:10;;;;;;;;;;;;;;;21.80;35.19;100678.65;101847;1355;61646;-84
2021/12/26 06:41:47;;;;;;;;;;;;;;;21.80;35.21;100676.50;101527;1357;62237;-83
2021/12/26 06:44:46;;;;;;;;;;;;;;;;;;;;;
2021/12/26 06:47:21;;;;;;;;;;;;;;;21.81;35.13;100687.39;101587;1357;76038;-82
2021/12/26 06:50:08;;;;;;;;;;;;;;;21.80;35.22;100692.83;101585;1358;61367;-83
2021/12/26 06:53:22;;;;;;;;;;;;;;;21.80;35.09;100709.66;101599;1354;61350;-83
2021/12/26 06:56:02;;;;;;;;;;;;;;;21.80;35.31;100722.02;100881;1363;72799;-83
2021/12/26 06:58:38;;;;;;;;;;;;;;;21.80;35.29;100714.12;100994;1363;75845;-83
2021/12/26 07:01:27;;;;;;;;;;;;;;;21.80;35.36;100707.52;101148;1363;61207;-83
2021/12/26 07:04:13;;;;;;;;;;;;;;;21.80;35.28;100699.65;101502;1357;61869;-83
2021/12/26 07:07:08;;;;;;;;;;;;;;;21.80;35.23;100705.73;101468;1357;71891;-84
2021/12/26 07:09:37;;;;;;;;;;;;;;;21.80;35.31;100701.11;101468;1357;77310;-83
2021/12/26 07:12:13;;;;;;;;;;;;;;;21.80;35.10;100699.80;101132;1360;437009;-82
2021/12/26 07:15:22;;;;;;;;;;;;;;;21.80;35.03;100700.52;101517;1361;61277;-83
2021/12/26 07:18:10;;;;;;;;;;;;;;;21.80;35.30;100695.85;101552;1356;73384;-82
2021/12/26 07:20:46;;;;;;;;;;;;;;;21.80;35.09;100690.15;101787;1351;74897;-83
2021/12/26 07:23:35;;;;;;;;;;;;;;;21.80;34.99;100691.39;101775;1358;61284;-83
2021/12/26 07:26:14;;;;;;;;;;;;;;;21.80;35.24;100693.00;101881;1355;64032;-84
2021/12/26 07:29:16;;;;;;;;;;;;;;;21.81;35.16;100688.13;101833;1352;72679;-84
2021/12/26 07:31:52;;;;;;;;;;;;;;;21.81;35.02;100690.46;101866;1356;75543;-83
2021/12/26 07:34:59;;;;;;;;;;;;;;;;;;;;;
2021/12/26 07:37:46;;;;;;;;;;;;;;;21.80;35.12;100684.94;101937;1342;61153;-84
2021/12/26 07:40:41;;;;;;;;;;;;;;;21.80;35.23;100689.77;102301;1342;73759;-84
2021/12/26 07:43:12;;;;;;;;;;;;;;;21.81;35.17;100693.65;102299;1346;75662;-83
2021/12/26 07:45:45;;;;;;;;;;;;;;;21.80;35.08;100698.34;102332;1348;61240;-83
2021/12/26 07:48:14;;;;;;;;;;;;;;;21.81;34.99;100706.92;102106;1342;61393;-84
2021/12/26 07:50:58;;;;;;;;;;;;;;;21.81;35.09;100710.46;102069;1345;72936;-84
2021/12/26 07:53:36;;;;;;;;;;;;;;;21.81;35.14;100716.41;102104;1349;75976;-84
2021/12/26 07:56:20;;;;;;;;;;;;;;;21.81;35.00;100714.81;102151;1343;61184;-84
2021/12/26 07:59:14;;;;;;;;;;;;;;;;;;;;;
2021/12/26 08:01:58;;;;;;;;;;;;;;;21.81;35.09;100718.76;102336;1343;72828;-83
2021/12/26 08:04:38;;;;;;;;;;;;;;;21.80;35.18;100717.89;102133;1349;74683;-83
2021/12/26 08:07:27;;;;;;;;;;;;;;;21.81;34.93;100719.48;102312;1343;61189;-83
2021/12/26 08:10:26;;;;;;;;;;;;;;;;;;;;;
2021/12/26 08:13:19;;;;;;;;;;;;;;;21.81;35.01;100737.17;102189;1348;72923;-83
2021/12/26 08:15:55;;;;;;;;;;;;;;;21.81;35.11;100732.52;102278;1342;74737;-83
2021/12/26 08:18:53;;;;;;;;;;;;;;;21.81;34.95;100731.42;102167;1348;61341;-83
2021/12/26 08:21:41;;;;;;;;;;;;;;;21.82;35.00;100734.97;102304;1346;61190;-83
2021/12/26 08:24:30;;;;;;;;;;;;;;;21.82;35.08;100738.02;102317;1342;73211;-83
2021/12/26 08:27:04;;;;;;;;;;;;;;;21.81;34.89;100726.40;101873;1348;75889;-84
2021/12/26 08:29:36;;;;;;;;;;;;;;;21.81;35.08;100729.11;101828;1352;61334;-84
2021/12/26 08:32:27;;;;;;;;;;;;;;;21.81;35.06;100725.17;101813;1351;61530;-83
2021/12/26 08:35:00;;;;;;;;;;;;;;;21.82;35.06;100730.13;101782;1351;72810;-83
2021/12/26 08:37:47;;;;;;;;;;;;;;;21.82;34.95;100730.31;101769;1351;73378;-84
2021/12/26 08:40:53;;;;;;;;;;;;;;;21.82;35.09;100731.58;101862;1349;61237;-84
2021/12/26 08:43:29;;;;;;;;;;;;;;;21.82;34.92;100729.63;101878;1355;61288;-83
2021/12/26 08:46:09;;;;;;;;;;;;;;;21.81;34.88;100726.60;101767;1351;74036;-84
2021/12/26 08:49:15;;;;;;;;;;;;;;;21.81;34.99;100724.10;101785;1355;73527;-84
2021/12/26 08:51:46;;;;;;;;;;;;;;;21.82;34.93;100721.17;101791;1352;61532;-84
2021/12/26 08:54:38;;;;;;;;;;;;;;;;;;;;;
2021/12/26 08:57:27;;;;;;;;;;;;;;;21.82;34.96;100725.63;101835;1352;73764;-83
2021/12/26 09:00:04;;;;;;;;;;;;;;;21.82;34.85;100716.48;101825;1351;74806;-84
2021/12/26 09:02:58;;;;;;;;;;;;;;;21.83;35.02;100709.84;101891;1355;61312;-84
2021/12/26 09:05:33;;;;;;;;;;;;;;;21.82;35.12;100704.85;101870;1356;61406;-84
2021/12/26 09:08:16;;;;;;;;;;;;;;;;;;;;;
2021/12/26 09:10:56;;;;;;;;;;;;;;;21.82;34.87;100699.50;101835;1354;75024;-83
2021/12/26 09:13:25;;;;;;;;;;;;;;;21.82;35.01;100693.04;101854;1349;61327;-83
2021/12/26 09:16:02;;;;;;;;;;;;;;;21.82;34.86;100682.11;101858;1352;61235;-83
2021/12/26 09:18:38;;;;;;;;;;;;;;;;;;;;;
2021/12/26 09:21:44;;;;;;;;;;;;;;;21.82;34.91;100683.54;101840;1355;73505;-83
2021/12/26 09:24:34;;;;;;;;;;;;;;;;;;;;;
2021/12/26 09:27:21;;;;;;;;;;;;;;;21.82;34.87;100688.89;101900;1348;61138;-84
2021/12/26 09:29:59;;;;;;;;;;;;;;;21.82;34.78;100686.77;101728;1354;74129;-84
2021/12/26 09:32:43;;;;;;;;;;;;;;;;;;;;;
2021/12/26 09:35:15;;;;;;;;;;;;;;;21.82;34.91;100692.67;101914;1349;61186;-83
2021/12/26 09:37:49;;;;;;;;;;;;;;;21.82;34.93;100695.90;101843;1351;61347;-84
2021/12/26 09:40:25;;;;;;;;;;;;;;;21.82;34.76;100696.60;101809;1357;72154;-83
2021/12/26 09:43:00;;;;;;;;;;;;;;;21.82;34.82;100696.80;101893;1355;75378;-84
2021/12/26 09:45:37;;;;;;;;;;;;;;;21.81;34.65;100688.63;101819;1356;61394;-84
2021/12/26 09:48:08;;;;;;;;;;;;;;;21.81;34.79;100691.48;101890;1349;61355;-84
2021/12/26 09:51:03;;;;;;;;;;;;;;;21.81;34.85;100685.91;101846;1348;73663;-84
2021/12/26 09:53:31;;;;;;;;;;;;;;;21.81;34.94;100690.05;101800;1354;76093;-84
2021/12/26 09:56:19;;;;;;;;;;;;;;;;;;;;;
2021/12/26 09:58:53;;;;;;;;;;;;;;;21.81;34.74;100694.36;101866;1349;61299;-84
2021/12/26 10:01:47;;;;;;;;;;;;;;;21.81;34.72;100696.88;101866;1355;71497;-83
2021/12/26 10:04:21;;;;;;;;;;;;;;;21.81;34.72;100697.73;101759;1351;75030;-84
2021/12/26 10:07:09;;;;;;;;;;;;;;;21.81;34.74;100691.15;101861;1349;61241;-84
2021/12/26 10:09:52;;;;;;;;;;;;;;;21.81;34.84;100693.10;101817;1351;61720;-83
2021/12/26 10:12:37;;;;;;;;;;;;;;;21.81;34.73;100697.20;101616;1358;73938;-84
2021/12/26 10:15:16;;;;;;;;;;;;;;;21.81;34.75;100696.15;101804;1357;74749;-83
2021/12/26 10:18:21;;;;;;;;;;;;;;;;;;;;;
2021/12/26 10:21:07;;;;;;;;;;;;;;;21.81;34.82;100694.02;101680;1349;61729;-83
2021/12/26 10:23:55;;;;;;;;;;;;;;;;;;;;;
2021/12/26 10:26:34;;;;;;;;;;;;;;;21.81;34.75;100699.77;101703;1358;75229;-83
2021/12/26 10:29:42;;;;;;;;;;;;;;;;;;;;;
2021/12/26 10:32:14;;;;;;;;;;;;;;;21.81;34.80;100692.55;101854;1348;61346;-82
2021/12/26 10:35:07;;;;;;;;;;;;;;;21.81;34.57;100682.35;101893;1348;72927;-82
2021/12/26 10:37:44;;;;;;;;;;;;;;;21.81;34.81;100676.98;101532;1357;75374;-84
2021/12/26 10:40:51;;;;;;;;;;;;;;;;;;;;;
2021/12/26 10:43:36;;;;;;;;;;;;;;;;;;;;;
2021/12/26 10:46:20;;;;;;;;;;;;;;;21.81;34.85;100658.70;101488;1363;72209;-84
2021/12/26 10:48:54;;;;;;;;;;;;;;;21.81;34.85;100656.39;101472;1363;75916;-85
2021/12/26 10:51:57;;;;;;;;;;;;;;;21.82;34.87;100662.44;101480;1360;61251;-84
2021/12/26 10:54:35;;;;;;;;;;;;;;;21.81;34.79;100670.16;100802;1369;61278;-83
2021/12/26 10:57:21;;;;;;;;;;;;;;;21.81;34.74;100671.27;100628;1365;72768;-83
2021/12/26 11:00:17;;;;;;;;;;;;;;;21.81;34.75;100670.89;100558;1366;76030;-83
2021/12/26 11:02:44;;;;;;;;;;;;;;;21.81;34.73;100668.00;100526;1365;61287;-81
2021/12/26 11:05:38;;;;;;;;;;;;;;;21.81;34.71;100670.15;100528;1365;61552;-81
2021/12/26 11:08:15;;;;;;;;;;;;;;;;;;;;;
2021/12/26 11:10:46;;;;;;;;;;;;;;;21.82;34.71;100669.23;100588;1370;75110;-82
2021/12/26 11:13:22;;;;;;;;;;;;;;;21.82;34.72;100675.69;100478;1371;61215;-82
2021/12/26 11:16:11;;;;;;;;;;;;;;;21.82;34.86;100675.66;101423;1363;62374;-82
2021/12/26 11:19:01;;;;;;;;;;;;;;;21.82;34.73;100670.31;101535;1358;73184;-82
2021/12/26 11:21:36;;;;;;;;;;;;;;;;;;;;;
2021/12/26 11:24:20;;;;;;;;;;;;;;;21.82;34.71;100664.04;101901;1353;61444;-82
2021/12/26 11:26:58;;;;;;;;;;;;;;;21.82;34.70;100672.10;101888;1356;61460;-83
2021/12/26 11:29:33;;;;;;;;;;;;;;;21.82;34.64;100677.48;101871;1355;71627;-82
2021/12/26 11:32:34;;;;;;;;;;;;;;;;;;;;;
2021/12/26 11:35:39;;;;;;;;;;;;;;;;;;;;;
2021/12/26 11:38:11;;;;;;;;;;;;;;;21.82;34.63;100693.04;102154;1342;61284;-83
2021/12/26 11:40:48;;;;;;;;;;;;;;;;;;;;;
2021/12/26 11:44:13;;;;;;;;;;;;;;;21.82;34.55;100687.88;102156;1342;74845;-83
2021/12/26 11:46:59;;;;;;;;;;;;;;;21.82;34.63;100682.33;101716;1355;61202;-83
2021/12/26 11:50:24;;;;;;;;;;;;;;;21.81;34.66;100677.86;101702;1358;61271;-83
2021/12/26 11:53:16;;;;;;;;;;;;;;;21.81;34.74;100671.98;101755;1354;72585;-82
2021/12/26 11:55:52;;;;;;;;;;;;;;;;;;;;;
2021/12/26 11:58:50;;;;;;;;;;;;;;;21.82;34.86;100663.88;101755;1351;61495;-83
2021/12/26 12:01:17;;;;;;;;;;;;;;;21.81;34.76;100659.77;101761;1355;61191;-83
2021/12/26 12:04:35;;;;;;;;;;;;;;;21.81;34.68;100662.80;101711;1354;74023;-83
2021/12/26 12:07:21;;;;;;;;;;;;;;;21.81;34.75;100665.31;101502;1363;75876;-83
2021/12/26 12:09:56;;;;;;;;;;;;;;;21.81;34.83;100661.56;101427;1364;61283;-83
2021/12/26 12:12:51;;;;;;;;;;;;;;;21.81;34.72;100656.73;101455;1357;61358;-83
2021/12/26 12:15:28;;;;;;;;;;;;;;;;;;;;;
2021/12/26 12:18:08;;;;;;;;;;;;;;;21.81;34.68;100657.06;100897;1362;74913;-83
2021/12/26 12:20:54;;;;;;;;;;;;;;;21.81;34.73;100656.02;101397;1365;61255;-84
2021/12/26 12:23:40;;;;;;;;;;;;;;;21.81;34.80;100651.89;101610;1357;61342;-83
2021/12/26 12:26:22;;;;;;;;;;;;;;;21.81;34.82;100654.94;101717;1355;72869;-82
2021/12/26 12:29:28;;;;;;;;;;;;;;;21.81;34.69;100659.40;101375;1358;73639;-83
2021/12/26 12:32:35;;;;;;;;;;;;;;;21.81;34.70;100665.31;101411;1363;61295;-82
2021/12/26 12:35:09;;;;;;;;;;;;;;;21.81;34.71;100662.66;100770;1368;61400;-84
2021/12/26 12:37:54;;;;;;;;;;;;;;;21.81;34.64;100657.08;100760;1368;72763;-83
2021/12/26 12:40:53;;;;;;;;;;;;;;;21.81;34.62;100652.10;100855;1366;74706;-83
2021/12/26 12:43:20;;;;;;;;;;;;;;;21.81;34.63;100658.89;101322;1363;61220;-83
2021/12/26 12:46:22;;;;;;;;;;;;;;;;;;;;;
2021/12/26 12:49:21;;;;;;;;;;;;;;;;;;;;;
2021/12/26 12:51:57;;;;;;;;;;;;;;;21.81;34.65;100662.30;100772;1370;75765;-83
2021/12/26 12:54:43;;;;;;;;;;;;;;;21.80;34.60;100662.19;100693;1365;61342;-83
2021/12/26 12:57:15;;;;;;;;;;;;;;;21.80;34.58;100667.02;100589;1363;61253;-83
2021/12/26 13:00:07;;;;;;;;;;;;;;;;;;;;;
2021/12/26 13:02:57;;;;;;;;;;;;;;;;;;;;;
2021/12/26 13:05:43;;;;;;;;;;;;;;;21.81;34.57;100668.05;101328;1359;61459;-83
2021/12/26 13:08:32;;;;;;;;;;;;;;;21.81;34.46;100667.70;101358;1360;61370;-83
2021/12/26 13:11:12;;;;;;;;;;;;;;;;;;;;;
2021/12/26 13:13:56;;;;;;;;;;;;;;;21.80;34.62;100662.92;101658;1357;74902;-83
2021/12/26 13:16:45;;;;;;;;;;;;;;;21.80;34.67;100669.54;101717;1358;61320;-83
2021/12/26 13:19:34;;;;;;;;;;;;;;;21.80;34.58;100674.77;101730;1357;61334;-83
2021/12/26 13:22:20;;;;;;;;;;;;;;;21.79;34.51;100673.95;101673;1351;72310;-84
2021/12/26 13:24:57;;;;;;;;;;;;;;;;;;;;;
2021/12/26 13:27:46;;;;;;;;;;;;;;;21.80;34.48;100679.44;102245;1343;61658;-83
2021/12/26 13:30:31;;;;;;;;;;;;;;;;;;;;;
2021/12/26 13:33:25;;;;;;;;;;;;;;;21.79;34.47;100695.79;102236;1342;73162;-83
2021/12/26 13:36:11;;;;;;;;;;;;;;;;;;;;;
2021/12/26 13:38:57;;;;;;;;;;;;;;;21.78;34.54;100692.45;101762;1358;61215;-82
2021/12/26 13:42:06;;;;;;;;;;;;;;;21.78;34.35;100693.70;101784;1351;61425;-82
2021/12/26 13:45:08;;;;;;;;;;;;;;;21.79;34.48;100691.70;101771;1351;72932;-84
2021/12/26 13:47:48;;;;;;;;;;;;;;;21.78;34.40;100689.40;101790;1351;75482;-84
2021/12/26 13:51:03;;;;;;;;;;;;;;;21.79;34.46;100691.16;101738;1354;61215;-83
2021/12/26 13:53:42;;;;;;;;;;;;;;;21.78;34.54;100697.81;101773;1352;61285;-83
2021/12/26 13:56:18;;;;;;;;;;;;;;;21.78;34.46;100702.28;101776;1355;71821;-83
2021/12/26 13:59:06;;;;;;;;;;;;;;;21.79;34.56;100710.48;101758;1351;74863;-82
2021/12/26 14:01:41;;;;;;;;;;;;;;;21.78;34.52;100709.46;101644;1354;61348;-82
2021/12/26 14:04:15;;;;;;;;;;;;;;;21.78;34.48;100711.79;101765;1351;61094;-83
2021/12/26 14:06:55;;;;;;;;;;;;;;;21.78;34.44;100718.95;101710;1354;71952;-83
2021/12/26 14:09:44;;;;;;;;;;;;;;;21.78;34.33;100721.29;101766;1358;75963;-84
2021/12/26 14:12:30;;;;;;;;;;;;;;;21.78;34.49;100719.00;101792;1351;61052;-83
2021/12/26 14:18:39;;;;;;;;;;;;;;;21.78;34.50;100722.89;101470;1357;72500;-84
2021/12/26 14:21:16;;;;;;;;;;;;;;;21.78;34.30;100716.64;101453;1361;76286;-84
2021/12/26 14:23:54;;;;;;;;;;;;;;;21.78;34.54;100717.88;101446;1363;61266;-84
2021/12/26 14:26:49;;;;;;;;;;;;;;;21.78;34.36;100723.27;101473;1364;61555;-84
2021/12/26 14:29:35;;;;;;;;;;;;;;;21.77;34.43;100723.86;101453;1363;72551;-83
2021/12/26 14:32:14;;;;;;;;;;;;;;;21.77;34.41;100723.33;101441;1357;75861;-83
2021/12/26 14:34:49;;;;;;;;;;;;;;;21.77;34.37;100726.57;101434;1360;60162;-84
2021/12/26 14:37:36;;;;;;;;;;;;;;;21.76;34.36;100726.42;101453;1364;61610;-84
2021/12/26 14:40:28;;;;;;;;;;;;;;;21.76;34.45;100727.16;101444;1363;73048;-84
2021/12/26 14:43:08;;;;;;;;;;;;;;;21.76;34.36;100731.66;101441;1364;75793;-82
2021/12/26 14:45:37;;;;;;;;;;;;;;;21.76;34.25;100734.14;101457;1364;61315;-83
2021/12/26 14:48:02;;;;;;;;;;;;;;;21.75;34.27;100731.50;101453;1360;61205;-83
2021/12/26 14:50:52;;;;;;;;;;;;;;;21.75;34.28;100735.83;101435;1363;74011;-84
2021/12/26 14:53:38;;;;;;;;;;;;;;;21.75;34.20;100739.23;101697;1351;77083;-84
2021/12/26 14:56:29;;;;;;;;;;;;;;;21.75;34.32;100747.48;102035;1351;61441;-83
2021/12/26 14:58:56;;;;;;;;;;;;;;;21.74;34.26;100756.29;102238;1343;61221;-83
2021/12/26 15:01:27;;;;;;;;;;;;;;;21.74;34.25;100760.98;102076;1345;73833;-84
2021/12/26 15:04:19;;;;;;;;;;;;;;;21.74;34.29;100764.05;101864;1348;75486;-84
2021/12/26 15:06:52;;;;;;;;;;;;;;;21.74;34.29;100765.13;101861;1348;61505;-83
2021/12/26 15:09:50;;;;;;;;;;;;;;;21.73;34.23;100774.27;101929;1348;61377;-83
2021/12/26 15:12:50;;;;;;;;;;;;;;;21.73;34.30;100776.44;98136;1351;5367153;-83
2021/12/26 15:15:16;;;;;;;;;;;;;;;21.73;34.40;100778.95;101660;1357;74134;-83
2021/12/26 15:18:05;;;;;;;;;;;;;;;;;;;;;
2021/12/26 15:20:49;;;;;;;;;;;;;;;21.72;34.26;100788.86;101648;1360;61569;-84